Time;durP1;ratioP1;P1;durP2;ratioP2;P2;SDS_P1;SDS_P2;PMS_P1;PMS_P2;Temp;Humidity;BMP_temperature;BMP_pressure;BME280_temperature;BME280_humidity;BME280_pressure;Samples;Min_cycle;Max_cycle;Signal;HPM_P1;HPM_P2
2022/09/22 00:01:21;;;;;;;5.78;3.53;;;5.60;99.90;;;;;;4973931;28;20680;-85
2022/09/22 00:03:49;;;;;;;5.63;3.50;;;5.60;99.90;;;;;;4973631;28;20041;-85
2022/09/22 00:06:18;;;;;;;6.93;3.20;;;5.50;99.90;;;;;;4973325;28;20042;-85
2022/09/22 00:08:47;;;;;;;5.65;3.05;;;5.50;99.90;;;;;;4973170;28;20062;-85
2022/09/22 00:11:22;;;;;;;3.03;2.40;;;5.50;99.90;;;;;;4973213;28;20553;-85
2022/09/22 00:13:52;;;;;;;4.20;2.83;;;5.50;99.90;;;;;;4973426;28;20561;-85
2022/09/22 00:16:24;;;;;;;4.30;2.65;;;5.50;99.90;;;;;;4973279;28;20038;-86
2022/09/22 00:18:49;;;;;;;4.28;2.72;;;5.50;99.90;;;;;;4972890;28;20027;-85
2022/09/22 00:21:17;;;;;;;3.53;2.45;;;5.50;99.90;;;;;;4972980;28;20035;-85
2022/09/22 00:24:15;;;;;;;5.82;2.35;;;5.60;99.90;;;;;;4973155;28;20047;-85
2022/09/22 00:27:08;;;;;;;3.47;2.67;;;5.70;99.90;;;;;;4973399;28;20447;-85
2022/09/22 00:29:50;;;;;;;5.40;2.63;;;5.70;99.90;;;;;;4973503;28;20545;-85
2022/09/22 00:32:17;;;;;;;4.78;2.22;;;5.70;99.90;;;;;;4973168;28;20027;-85
2022/09/22 00:34:43;;;;;;;4.90;2.22;;;5.60;99.90;;;;;;4972944;28;20030;-85
2022/09/22 00:37:09;;;;;;;4.75;2.55;;;5.50;99.90;;;;;;4973047;28;20097;-85
2022/09/22 00:39:35;;;;;;;3.90;2.42;;;5.50;99.90;;;;;;4973041;28;20038;-85
2022/09/22 00:42:01;;;;;;;4.68;2.55;;;5.40;99.90;;;;;;4974187;28;20493;-85
2022/09/22 00:44:43;;;;;;;3.88;2.35;;;5.30;99.90;;;;;;4972636;28;20039;-85
2022/09/22 00:47:24;;;;;;;3.75;2.22;;;5.20;99.90;;;;;;4972968;28;20520;-86
2022/09/22 00:50:13;;;;;;;5.60;2.70;;;5.10;99.90;;;;;;4956928;28;20090;-85
2022/09/22 00:52:51;;;;;;;3.47;2.45;;;5.10;99.90;;;;;;4972814;28;20027;-86
2022/09/22 00:55:19;;;;;;;4.75;2.60;;;5.00;99.90;;;;;;4972832;28;20043;-85
2022/09/22 00:57:46;;;;;;;2.60;2.15;;;4.90;99.90;;;;;;4957081;28;20046;-86
2022/09/22 01:00:13;;;;;;;3.88;2.85;;;5.00;99.90;;;;;;4972702;28;20034;-85
2022/09/22 01:02:39;;;;;;;7.45;2.85;;;4.90;99.90;;;;;;4972513;28;20027;-85
2022/09/22 01:05:06;;;;;;;4.05;2.55;;;4.90;99.90;;;;;;4972504;28;20872;-86
2022/09/22 01:07:32;;;;;;;4.28;2.55;;;4.80;99.90;;;;;;4972652;28;20035;-85
2022/09/22 01:09:58;;;;;;;3.83;2.92;;;4.80;99.90;;;;;;4972347;28;20027;-85
2022/09/22 01:12:41;;;;;;;6.30;2.67;;;4.70;99.90;;;;;;4972252;28;20046;-85
2022/09/22 01:15:14;;;;;;;5.63;2.97;;;4.70;99.90;;;;;;4972117;28;20077;-85
2022/09/22 01:18:29;;;;;;;2.85;2.38;;;4.70;99.90;;;;;;4988477;28;20039;-85
2022/09/22 01:20:55;;;;;;;11.32;4.40;;;4.60;99.90;;;;;;4954547;28;20648;-86
2022/09/22 01:23:40;;;;;;;6.68;3.13;;;4.60;99.90;;;;;;4976011;28;20110;-85
2022/09/22 01:26:25;;;;;;;7.00;3.38;;;4.60;99.90;;;;;;4976042;28;20506;-85
2022/09/22 01:29:20;;;;;;;6.47;3.13;;;4.60;99.90;;;;;;4976078;28;20039;-85
2022/09/22 01:31:58;;;;;;;6.53;3.75;;;4.60;99.90;;;;;;4976205;28;20518;-85
2022/09/22 01:34:43;;;;;;;5.20;3.20;;;4.50;99.90;;;;;;4976276;28;20038;-85
2022/09/22 01:37:19;;;;;;;4.20;2.88;;;4.50;99.90;;;;;;4976266;28;20495;-85
2022/09/22 01:40:15;;;;;;;6.07;3.50;;;4.40;99.90;;;;;;4976044;28;20035;-86
2022/09/22 01:42:53;;;;;;;5.05;3.50;;;4.40;99.90;;;;;;4958932;28;20404;-85
2022/09/22 01:45:28;;;;;;;4.68;3.17;;;4.40;99.90;;;;;;4959723;28;20070;-85
2022/09/22 01:48:01;;;;;;;5.22;3.72;;;4.40;99.90;;;;;;4976061;28;20125;-85
2022/09/22 01:50:36;;;;;;;;;;;4.30;99.90;;;;;;4976105;28;20031;-85
2022/09/22 01:53:04;;;;;;;;;;;4.30;99.90;;;;;;4992162;28;20512;-85
2022/09/22 01:55:35;;;;;;;;;;;4.30;99.90;;;;;;4992002;28;20323;-85
2022/09/22 01:58:06;;;;;;;;;;;4.30;99.90;;;;;;4992241;28;19913;-85
2022/09/22 02:00:32;;;;;;;;;;;4.30;99.90;;;;;;4993179;28;19964;-86
2022/09/22 02:03:08;;;;;;;;;;;4.20;99.90;;;;;;4992805;28;19913;-86
2022/09/22 02:05:37;;;;;;;;;;;4.20;99.90;;;;;;4992800;28;19920;-86
2022/09/22 02:08:06;;;;;;;;;;;4.20;99.90;;;;;;4993055;28;20056;-86
2022/09/22 02:10:34;;;;;;;;;;;4.20;99.90;;;;;;4993010;28;20392;-86
2022/09/22 02:13:00;;;;;;;;;;;4.20;99.90;;;;;;4992800;28;20008;-86
2022/09/22 02:18:13;;;;;;;;;;;4.20;99.90;;;;;;4977136;28;20362;-85
2022/09/22 02:23:44;;;;;;;;;;;4.20;99.90;;;;;;4991821;28;19910;-86
2022/09/22 02:29:39;;;;;;;;;;;4.10;99.90;;;;;;4977063;28;20010;-86
2022/09/22 02:32:07;;;;;;;;;;;4.10;99.90;;;;;;4990934;28;19910;-85
2022/09/22 02:34:33;;;;;;;;;;;4.10;99.90;;;;;;4991923;28;19974;-86
2022/09/22 02:37:18;;;;;;;;;;;4.00;99.90;;;;;;4991934;28;19918;-85
2022/09/22 02:39:53;;;;;;;;;;;4.00;99.90;;;;;;4991333;28;19960;-85
2022/09/22 02:42:27;;;;;;;;;;;4.10;99.90;;;;;;4991632;28;20340;-86
2022/09/22 02:44:55;;;;;;;;;;;4.00;99.90;;;;;;4991252;28;19921;-85
2022/09/22 02:47:26;;;;;;;;;;;4.00;99.90;;;;;;4991837;28;19914;-85
2022/09/22 02:49:51;;;;;;;;;;;4.00;99.90;;;;;;4991241;28;19924;-86
2022/09/22 02:52:18;;;;;;;;;;;4.00;99.90;;;;;;4991470;28;20262;-85
2022/09/22 02:54:43;;;;;;;;;;;4.10;99.90;;;;;;4991336;28;20684;-86
2022/09/22 02:57:09;;;;;;;;;;;4.10;99.90;;;;;;4991419;28;19945;-85
2022/09/22 02:59:35;;;;;;;;;;;4.10;99.90;;;;;;4990905;28;19957;-85
2022/09/22 03:02:00;;;;;;;;;;;4.20;99.90;;;;;;4991205;28;19910;-85
2022/09/22 03:04:26;;;;;;;;;;;4.20;99.90;;;;;;4990996;28;19913;-85
2022/09/22 03:06:52;;;;;;;;;;;4.20;99.90;;;;;;4991487;28;19925;-85
2022/09/22 03:09:17;;;;;;;;;;;4.30;99.90;;;;;;4991328;28;20380;-85
2022/09/22 03:11:43;;;;;;;;;;;4.20;99.90;;;;;;4991205;28;19906;-85
2022/09/22 03:14:09;;;;;;;;;;;4.30;99.90;;;;;;4990908;28;20676;-85
2022/09/22 03:16:34;;;;;;;;;;;4.30;99.90;;;;;;4990596;28;19992;-85
2022/09/22 03:19:00;;;;;;;;;;;4.20;99.90;;;;;;4990898;28;19914;-85
2022/09/22 03:21:25;;;;;;;;;;;4.20;99.90;;;;;;4990189;28;19953;-85
2022/09/22 03:23:51;;;;;;;;;;;4.10;99.90;;;;;;4990239;28;20293;-85
2022/09/22 03:26:17;;;;;;;;;;;4.10;99.90;;;;;;4989690;28;20285;-85
2022/09/22 03:28:42;;;;;;;;;;;4.00;99.90;;;;;;4989887;28;19916;-85
2022/09/22 03:31:09;;;;;;;;;;;4.00;99.90;;;;;;4990220;28;19910;-85
2022/09/22 03:33:35;;;;;;;;;;;4.00;99.90;;;;;;4990221;28;19980;-85
2022/09/22 03:36:01;;;;;;;;;;;4.00;99.90;;;;;;4990996;28;20366;-86
2022/09/22 03:38:26;;;;;;;;;;;3.90;99.90;;;;;;4990703;28;19997;-85
2022/09/22 03:40:52;;;;;;;;;;;3.90;99.90;;;;;;4990483;28;19929;-86
2022/09/22 03:43:18;;;;;;;;;;;3.90;99.90;;;;;;4990116;28;19914;-85
2022/09/22 03:45:44;;;;;;;;;;;3.80;99.90;;;;;;4989649;28;19929;-85
2022/09/22 03:48:09;;;;;;;;;;;3.80;99.90;;;;;;4975091;28;19917;-85
2022/09/22 03:50:35;;;;;;;;;;;3.90;99.90;;;;;;4990397;28;19935;-85
2022/09/22 03:53:00;;;;;;;;;;;3.90;99.90;;;;;;4990350;28;19953;-85
2022/09/22 03:55:26;;;;;;;;;;;3.90;99.90;;;;;;4990289;28;19910;-85
2022/09/22 03:57:51;;;;;;;;;;;3.80;99.90;;;;;;4990315;28;19990;-85
2022/09/22 04:00:17;;;;;;;;;;;3.80;99.90;;;;;;4989726;28;19918;-85
2022/09/22 04:02:43;;;;;;;;;;;3.80;99.90;;;;;;4990093;28;19910;-85
2022/09/22 04:05:09;;;;;;;;;;;3.80;99.90;;;;;;4989466;28;20250;-85
2022/09/22 04:07:34;;;;;;;;;;;3.80;99.90;;;;;;4989936;28;19917;-85
2022/09/22 04:10:01;;;;;;;;;;;3.80;99.90;;;;;;4990273;28;20285;-85
2022/09/22 04:12:26;;;;;;;;;;;3.80;99.90;;;;;;4989720;28;19910;-85
2022/09/22 04:14:52;;;;;;;;;;;3.80;99.90;;;;;;4989582;28;19914;-85
2022/09/22 04:17:19;;;;;;;;;;;3.80;99.90;;;;;;4989726;28;19913;-85
2022/09/22 04:20:10;;;;;;;;;;;3.80;99.90;;;;;;4989254;28;19928;-85
2022/09/22 04:22:36;;;;;;;;;;;3.80;99.90;;;;;;4989657;28;20057;-85
2022/09/22 04:25:02;;;;;;;;;;;3.80;99.90;;;;;;4989642;28;19964;-85
2022/09/22 04:27:28;;;;;;;;;;;3.80;99.90;;;;;;4989613;28;19917;-85
2022/09/22 04:29:53;;;;;;;;;;;3.90;99.90;;;;;;4989520;28;19953;-86
2022/09/22 04:32:19;;;;;;;;;;;3.90;99.90;;;;;;4989526;28;19961;-85
2022/09/22 04:34:44;;;;;;;;;;;3.90;99.90;;;;;;4989140;28;19912;-85
2022/09/22 04:37:10;;;;;;;;;;;3.90;99.90;;;;;;4989563;28;19997;-85
2022/09/22 04:39:36;;;;;;;;;;;3.90;99.90;;;;;;4989429;28;19917;-85
2022/09/22 04:42:02;;;;;;;;;;;4.00;99.90;;;;;;4989378;28;19914;-85
2022/09/22 04:44:28;;;;;;;;;;;4.10;99.90;;;;;;4989450;28;19917;-86
2022/09/22 04:46:55;;;;;;;;;;;4.30;99.90;;;;;;4989648;28;20279;-86
2022/09/22 04:49:20;;;;;;;;;;;4.40;99.90;;;;;;4989828;28;19933;-86
2022/09/22 04:51:46;;;;;;;;;;;4.50;99.90;;;;;;4989696;28;19910;-86
2022/09/22 04:54:13;;;;;;;;;;;4.60;99.90;;;;;;4989546;28;19914;-87
2022/09/22 04:56:39;;;;;;;;;;;4.60;99.90;;;;;;4986779;28;19936;-86
2022/09/22 04:59:05;;;;;;;;;;;4.50;99.90;;;;;;4989659;28;19910;-86
2022/09/22 05:01:31;;;;;;;;;;;4.60;99.90;;;;;;4989850;28;19916;-86
2022/09/22 05:03:56;;;;;;;;;;;4.70;99.90;;;;;;4989888;28;19917;-86
2022/09/22 05:06:22;;;;;;;;;;;4.70;99.90;;;;;;4974648;28;19914;-86
2022/09/22 05:08:47;;;;;;;;;;;4.60;99.90;;;;;;4989430;28;19973;-86
2022/09/22 05:11:13;;;;;;;;;;;4.50;99.90;;;;;;4989722;28;19993;-88
2022/09/22 05:13:39;;;;;;;;;;;4.60;99.90;;;;;;4973937;28;19961;-88
2022/09/22 05:16:06;;;;;;;;;;;4.70;99.90;;;;;;4990238;28;19910;-87
2022/09/22 05:18:32;;;;;;;;;;;4.70;99.90;;;;;;4974992;28;19914;-89
2022/09/22 05:20:58;;;;;;;;;;;4.80;99.90;;;;;;4990098;28;19917;-89
2022/09/22 05:23:23;;;;;;;;;;;4.90;99.90;;;;;;4989779;28;19906;-88
2022/09/22 05:25:49;;;;;;;;;;;4.90;99.90;;;;;;4989412;28;20239;-88
2022/09/22 05:28:15;;;;;;;;;;;5.00;99.90;;;;;;4990017;28;19914;-89
2022/09/22 05:30:40;;;;;;;;;;;5.00;99.90;;;;;;4990042;28;19910;-86
2022/09/22 05:33:06;;;;;;;;;;;4.90;99.90;;;;;;4987969;28;19910;-86
2022/09/22 05:35:31;;;;;;;;;;;4.90;99.90;;;;;;4988509;28;19961;-86
2022/09/22 05:37:57;;;;;;;;;;;4.90;99.90;;;;;;4988822;28;19910;-87
2022/09/22 05:40:24;;;;;;;;;;;4.80;99.90;;;;;;4988701;28;20373;-86
2022/09/22 05:42:51;;;;;;;;;;;4.80;99.90;;;;;;4988710;28;19918;-86
2022/09/22 05:45:17;;;;;;;;;;;4.80;99.90;;;;;;4988198;28;20266;-87
2022/09/22 05:47:43;;;;;;;;;;;4.80;99.90;;;;;;4988405;28;19967;-86
2022/09/22 05:50:27;;;;;;;;;;;4.80;99.90;;;;;;4972409;28;19918;-86
2022/09/22 05:53:00;;;;;;;;;;;4.70;99.90;;;;;;4988703;28;19957;-89
2022/09/22 05:55:26;;;;;;;;;;;4.70;99.90;;;;;;4989775;28;19961;-88
2022/09/22 05:57:55;;;;;;;;;;;4.80;99.90;;;;;;4974859;28;19910;-89
2022/09/22 06:00:20;;;;;;;;;;;4.80;99.90;;;;;;4989912;28;19910;-89
2022/09/22 06:02:46;;;;;;;;;;;4.90;99.90;;;;;;4989696;28;20277;-90
2022/09/22 06:05:11;;;;;;;;;;;5.00;99.90;;;;;;4989847;28;19914;-89
2022/09/22 06:07:37;;;;;;;;;;;5.10;99.90;;;;;;4990895;28;19910;-90
2022/09/22 06:13:31;;;;;;;;;;;5.20;99.90;;;;;;4978367;28;20365;-89
2022/09/22 06:15:59;;;;;;;;;;;5.40;99.90;;;;;;4993172;28;19914;-89
2022/09/22 06:18:25;;;;;;;;;;;5.60;99.90;;;;;;4993153;28;19933;-89
2022/09/22 06:20:51;;;;;;;;;;;5.90;99.90;;;;;;4993230;28;19949;-89
2022/09/22 06:23:16;;;;;;;;;;;6.10;99.90;;;;;;4993115;28;19910;-89
2022/09/22 06:25:42;;;;;;;;;;;6.10;99.90;;;;;;4993341;28;19921;-89
2022/09/22 06:28:12;;;;;;;;;;;6.30;99.90;;;;;;4992871;28;19953;-88
2022/09/22 06:30:39;;;;;;;;;;;6.40;99.90;;;;;;4993095;28;19917;-88
2022/09/22 06:33:05;;;;;;;;;;;6.60;99.90;;;;;;4992696;28;19910;-88
2022/09/22 06:35:35;;;;;;;;;;;6.70;99.90;;;;;;4992407;28;19932;-89
2022/09/22 06:38:01;;;;;;;;;;;6.90;99.90;;;;;;4992732;28;20370;-89
2022/09/22 06:40:27;;;;;;;;;;;7.10;99.90;;;;;;4992415;28;19996;-89
2022/09/22 06:42:56;;;;;;;;;;;7.30;99.90;;;;;;4976360;28;19957;-87
2022/09/22 06:45:24;;;;;;;;;;;7.60;99.90;;;;;;4992360;28;19961;-89
2022/09/22 06:47:50;;;;;;;;;;;7.80;99.90;;;;;;4992427;28;20000;-89
2022/09/22 06:50:16;;;;;;;;;;;7.80;99.90;;;;;;4992451;28;20314;-89
2022/09/22 06:52:42;;;;;;;;;;;8.00;99.90;;;;;;4992537;28;19964;-89
2022/09/22 06:55:09;;;;;;;;;;;8.20;99.90;;;;;;4992269;28;19917;-88
2022/09/22 06:57:35;;;;;;;;;;;8.20;99.90;;;;;;4992160;28;19987;-88
2022/09/22 07:00:02;;;;;;;;;;;8.50;99.90;;;;;;4991775;28;19917;-89
2022/09/22 07:02:28;;;;;;;;;;;8.60;99.90;;;;;;4991868;28;19965;-88
2022/09/22 07:04:57;;;;;;;;;;;8.60;99.90;;;;;;4991975;28;19913;-89
2022/09/22 07:07:27;;;;;;;;;;;8.80;99.90;;;;;;4992043;28;19949;-88
2022/09/22 07:09:53;;;;;;;;;;;8.80;99.90;;;;;;4991858;28;19906;-89
2022/09/22 07:12:20;;;;;;;;;;;9.00;99.90;;;;;;4975767;28;20010;-89
2022/09/22 07:14:48;;;;;;;;;;;9.10;99.90;;;;;;4991727;28;20269;-89
2022/09/22 07:17:15;;;;;;;;;;;9.30;99.90;;;;;;4991734;28;19917;-88
2022/09/22 07:19:40;;;;;;;;;;;9.40;99.90;;;;;;4990213;28;19949;-89
2022/09/22 07:22:07;;;;;;;;;;;9.40;99.90;;;;;;4991744;28;19910;-89
2022/09/22 07:24:32;;;;;;;;;;;9.50;99.90;;;;;;4991698;28;19985;-89
2022/09/22 07:27:03;;;;;;;;;;;9.50;99.90;;;;;;4991714;28;19920;-87
2022/09/22 07:29:29;;;;;;;;;;;9.70;99.90;;;;;;4991653;28;19914;-88
2022/09/22 07:31:58;;;;;;;;;;;9.80;99.90;;;;;;4990259;28;19965;-86
2022/09/22 07:34:24;;;;;;;;;;;9.90;99.90;;;;;;4989805;28;20417;-87
2022/09/22 07:36:50;;;;;;;;;;;9.90;99.90;;;;;;4990553;28;20349;-87
2022/09/22 07:39:16;;;;;;;;;;;10.10;99.90;;;;;;4990140;28;19906;-87
2022/09/22 07:41:41;;;;;;;;;;;10.10;99.90;;;;;;4990924;28;19921;-88
2022/09/22 07:46:52;;;;;;;;;;;10.30;99.90;;;;;;4991098;28;19925;-88
2022/09/22 07:49:19;;;;;;;;;;;10.40;99.90;;;;;;4990908;28;19914;-88
2022/09/22 07:51:45;;;;;;;;;;;10.50;99.90;;;;;;4990876;28;19947;-87
2022/09/22 07:54:10;;;;;;;;;;;10.60;99.90;;;;;;4990898;28;19910;-88
2022/09/22 07:56:40;;;;;;;;;;;10.60;99.90;;;;;;4975855;28;19910;-88
2022/09/22 07:59:13;;;;;;;;;;;10.70;99.90;;;;;;4991250;28;19918;-89
2022/09/22 08:01:42;;;;;;;;;;;10.60;99.90;;;;;;4991343;28;19910;-88
2022/09/22 08:04:10;;;;;;;;;;;10.70;99.90;;;;;;4991438;28;19961;-89
2022/09/22 08:06:36;;;;;;;;;;;10.70;99.90;;;;;;4990963;28;19910;-88
2022/09/22 08:09:03;;;;;;;;;;;10.70;99.90;;;;;;4991051;28;20273;-88
2022/09/22 08:11:29;;;;;;;;;;;10.80;99.90;;;;;;4991242;28;19910;-89
2022/09/22 08:13:56;;;;;;;;;;;10.90;99.90;;;;;;4991168;28;19910;-90
2022/09/22 08:16:22;;;;;;;;;;;11.00;99.90;;;;;;4990868;28;20317;-87
2022/09/22 08:18:49;;;;;;;;;;;11.00;99.90;;;;;;4990362;28;19917;-90
2022/09/22 08:21:18;;;;;;;;;;;11.10;99.90;;;;;;4990444;28;19964;-90
2022/09/22 08:23:44;;;;;;;;;;;11.20;99.90;;;;;;4988546;28;19910;-89
2022/09/22 08:26:10;;;;;;;;;;;11.20;99.90;;;;;;4990228;28;20000;-87
2022/09/22 08:28:36;;;;;;;;;;;11.20;99.90;;;;;;4990326;28;19909;-89
2022/09/22 08:31:02;;;;;;;;;;;11.30;99.90;;;;;;4989918;28;20056;-90
2022/09/22 08:33:31;;;;;;;;;;;11.70;99.90;;;;;;4990342;28;20084;-90
2022/09/22 08:35:57;;;;;;;;;;;13.00;99.90;;;;;;4990307;28;20400;-88
2022/09/22 08:38:24;;;;;;;;;;;14.50;99.90;;;;;;4973906;28;20012;-89
2022/09/22 08:41:11;;;;;;;;;;;15.20;99.90;;;;;;4990393;28;19910;-89
2022/09/22 08:43:42;;;;;;;;;;;16.00;99.90;;;;;;4990270;28;19949;-89
2022/09/22 08:46:08;;;;;;;;;;;16.60;99.90;;;;;;4989568;28;20655;-90
2022/09/22 08:54:10;;;;;;;;;;;17.70;99.90;;;;;;4988663;28;20385;-88
2022/09/22 08:56:40;;;;;;;;;;;17.70;99.90;;;;;;4989407;28;19909;-90
2022/09/22 08:59:13;;;;;;;;;;;17.50;99.90;;;;;;4989171;28;19910;-89
2022/09/22 09:01:59;;;;;;;;;;;17.00;99.90;;;;;;4988852;28;19946;-89
2022/09/22 09:04:39;;;;;;;;;;;16.60;99.90;;;;;;4989185;28;19913;-88
2022/09/22 09:07:27;;;;;;;;;;;16.80;99.90;;;;;;4988947;28;19914;-89
2022/09/22 09:09:59;;;;;;;;;;;16.80;99.90;;;;;;4972482;28;20004;-89
2022/09/22 09:12:48;;;;;;;;;;;16.50;99.90;;;;;;4989045;28;19910;-89
2022/09/22 09:15:21;;;;;;;;;;;16.00;99.90;;;;;;4988282;28;19964;-90
2022/09/22 09:17:48;;;;;;;;;;;16.00;99.90;;;;;;4988281;28;19917;-89
2022/09/22 09:20:18;;;;;;;;;;;15.60;99.90;;;;;;4988578;28;19917;-89
2022/09/22 09:22:54;;;;;;;;;;;15.80;99.90;;;;;;4988600;28;19918;-89
2022/09/22 09:25:22;;;;;;;;;;;15.70;99.90;;;;;;4987947;28;20083;-89
2022/09/22 09:27:51;;;;;;;;;;;15.80;99.90;;;;;;4988101;28;20513;-88
2022/09/22 09:30:18;;;;;;;;;;;15.80;99.90;;;;;;4988289;28;19910;-89
2022/09/22 09:33:00;;;;;;;;;;;16.10;99.90;;;;;;4988588;28;19910;-89
2022/09/22 09:35:35;;;;;;;;;;;16.60;99.90;;;;;;4972120;28;19917;-88
2022/09/22 09:38:01;;;;;;;;;;;17.40;99.90;;;;;;4987345;28;20055;-87
2022/09/22 09:40:27;;;;;;;;;;;17.40;99.90;;;;;;4984290;28;20033;-88
2022/09/22 09:42:55;;;;;;;;;;;18.10;99.90;;;;;;4990416;28;20113;-88
2022/09/22 09:45:24;;;;;;;;;;;19.00;99.90;;;;;;4991119;28;19922;-87
2022/09/22 09:48:02;;;;;;;;;;;19.20;99.90;;;;;;4990989;28;20030;-87
2022/09/22 09:50:30;;;;;;;;;;;18.90;99.90;;;;;;4991763;28;19917;-87
2022/09/22 09:53:00;;;;;;;;;;;18.80;99.90;;;;;;4991377;28;19917;-87
2022/09/22 09:55:26;;;;;;;;;;;18.00;99.90;;;;;;4991970;28;19910;-87
2022/09/22 09:58:00;;;;;;;;;;;18.30;99.90;;;;;;4991053;28;20037;-88
2022/09/22 10:00:31;;;;;;;;;;;18.50;99.90;;;;;;4990883;28;20041;-87
2022/09/22 10:03:21;;;;;;;;;;;18.10;99.20;;;;;;4975972;28;20038;-87
2022/09/22 10:05:57;;;;;;;;;;;18.60;99.90;;;;;;4991183;28;19937;-88
2022/09/22 10:08:23;;;;;;;;;;;19.50;99.60;;;;;;4991696;28;20129;-89
2022/09/22 10:10:53;;;;;;;;;;;19.50;99.90;;;;;;4992862;28;20073;-89
2022/09/22 10:13:22;;;;;;;;;;;19.60;98.40;;;;;;4977692;28;20030;-89
2022/09/22 10:15:59;;;;;;;;;;;19.80;96.90;;;;;;4991665;28;20096;-89
2022/09/22 10:18:24;;;;;;;;;;;19.00;97.60;;;;;;4992582;28;20254;-89
2022/09/22 10:21:05;;;;;;;;;;;19.10;96.20;;;;;;4992262;28;19932;-88
2022/09/22 10:23:32;;;;;;;;;;;19.20;95.90;;;;;;4992334;28;20056;-89
2022/09/22 10:26:14;;;;;;;;;;;18.40;95.70;;;;;;4992513;28;20065;-89
2022/09/22 10:28:40;;;;;;;;;;;19.00;98.70;;;;;;4992066;28;20370;-90
2022/09/22 10:31:16;;;;;;;;;;;18.30;97.80;;;;;;4991872;28;20031;-90
2022/09/22 10:33:52;;;;;;;;;;;17.90;97.50;;;;;;4992196;28;19914;-88
2022/09/22 10:36:18;;;;;;;;;;;17.70;97.70;;;;;;4975436;28;20425;-89
2022/09/22 10:38:43;;;;;;;;;;;17.70;99.30;;;;;;4991684;28;20042;-89
2022/09/22 10:41:12;;;;;;;;;;;17.50;98.40;;;;;;4990892;28;20108;-89
2022/09/22 10:43:44;;;;;;;;;;;17.70;98.90;;;;;;4987244;28;19961;-89
2022/09/22 10:46:28;;;;;;;;;;;18.20;98.90;;;;;;4990619;28;19914;-89
2022/09/22 10:48:55;;;;;;;;;;;18.60;97.60;;;;;;4990977;28;20009;-88
2022/09/22 10:51:32;;;;;;;;;;;18.50;98.30;;;;;;4991049;28;20005;-90
2022/09/22 10:54:11;;;;;;;;;;;18.60;98.70;;;;;;4990921;28;20042;-89
2022/09/22 10:56:42;;;;;;;;;;;18.80;99.20;;;;;;4991092;28;20034;-89
2022/09/22 10:59:26;;;;;;;;;;;19.00;97.40;;;;;;4991494;28;20105;-89
2022/09/22 11:01:58;;;;;;;;;;;19.60;98.20;;;;;;4991246;28;20027;-89
2022/09/22 11:04:36;;;;;;;;;;;19.10;96.30;;;;;;4991249;28;20059;-89
2022/09/22 11:13:11;;;;;;;;;;;19.10;96.40;;;;;;4990796;28;19916;-89
2022/09/22 11:15:53;;;;;;;;;;;18.80;96.50;;;;;;4976414;28;19918;-89
2022/09/22 11:18:26;;;;;;;;;;;19.40;97.90;;;;;;4991613;28;20042;-90
2022/09/22 11:21:09;;;;;;;;;;;19.70;95.80;;;;;;4991431;28;20046;-90
2022/09/22 11:23:55;;;;;;;;;;;20.70;94.20;;;;;;4991495;28;20053;-88
2022/09/22 11:26:40;;;;;;;;;;;20.80;93.30;;;;;;4991482;28;20084;-91
2022/09/22 11:29:08;;;;;;;;;;;20.80;92.10;;;;;;4992438;28;19910;-89
2022/09/22 11:31:52;;;;;;;;;;;20.10;94.20;;;;;;4990947;28;20047;-90
2022/09/22 11:34:37;;;;;;;;;;;20.80;92.30;;;;;;4990445;28;19910;-89
2022/09/22 11:37:26;;;;;;;;;;;20.40;92.00;;;;;;4991622;28;20043;-90
2022/09/22 11:39:55;;;;;;;;;;;20.70;92.50;;;;;;4991178;28;20045;-90
2022/09/22 11:42:36;;;;;;;;;;;21.30;90.80;;;;;;4991350;28;20062;-89
2022/09/22 11:45:04;;;;;;;;;;;21.60;88.80;;;;;;4988970;28;20110;-89
2022/09/22 11:47:36;;;;;;;;;;;20.40;90.10;;;;;;4990818;28;20038;-89
2022/09/22 11:50:12;;;;;;;;;;;20.40;89.60;;;;;;4990442;28;20034;-91
2022/09/22 11:52:57;;;;;;;;;;;20.30;89.50;;;;;;4991270;28;20100;-90
2022/09/22 11:55:25;;;;;;;;;;;20.50;87.10;;;;;;4990352;28;19914;-89
2022/09/22 11:57:54;;;;;;;;;;;21.00;87.70;;;;;;4990791;28;19913;-87
2022/09/22 12:00:21;;;;;;;;;;;21.00;86.90;;;;;;4990886;28;20008;-90
2022/09/22 12:03:01;;;;;;;;;;;20.70;86.60;;;;;;4991139;28;19917;-90
2022/09/22 12:05:30;;;;;;;;;;;20.60;86.30;;;;;;4989639;28;20057;-89
2022/09/22 12:08:04;;;;;;;;;;;20.80;86.00;;;;;;4990813;28;19916;-90
2022/09/22 12:10:35;;;;;;;;;;;20.70;87.30;;;;;;4989777;28;20034;-89
2022/09/22 12:13:02;;;;;;;;;;;20.40;85.20;;;;;;4990134;28;20362;-88
2022/09/22 12:15:53;;;;;;;;;;;19.10;89.50;;;;;;4990354;28;20033;-89
2022/09/22 12:18:42;;;;;;;;;;;19.00;89.20;;;;;;4971801;28;19957;-90
2022/09/22 12:21:17;;;;;;;;;;;18.60;90.10;;;;;;4968160;28;20503;-90
2022/09/22 12:23:44;;;;;;;;;;;18.60;91.00;;;;;;4989861;28;19960;-89
2022/09/22 12:26:29;;;;;;;;;;;18.40;91.00;;;;;;4989422;28;20398;-89
2022/09/22 12:28:57;;;;;;;;;;;18.40;91.40;;;;;;4989935;28;20080;-88
2022/09/22 12:31:31;;;;;;;;;;;18.50;91.00;;;;;;4989991;28;20396;-89
2022/09/22 12:33:57;;;;;;;;;;;17.30;91.40;;;;;;4989500;28;20120;-89
2022/09/22 12:36:31;;;;;;;;;;;16.70;93.20;;;;;;4990446;28;19913;-88
2022/09/22 12:39:17;;;;;;;;;;;16.40;94.90;;;;;;4973279;28;19914;-89
2022/09/22 12:41:50;;;;;;;;;;;16.80;94.50;;;;;;4989079;28;20012;-88
2022/09/22 12:44:19;;;;;;;;;;;17.30;92.40;;;;;;4989863;28;20266;-89
2022/09/22 12:46:45;;;;;;;;;;;18.00;93.60;;;;;;4988887;28;20435;-89
2022/09/22 12:49:14;;;;;;;;;;;18.30;92.70;;;;;;4988957;28;19906;-89
2022/09/22 12:51:39;;;;;;;;;;;18.20;92.20;;;;;;4989580;28;20044;-89
2022/09/22 12:54:20;;;;;;;;;;;18.50;91.70;;;;;;4989004;28;19917;-89
2022/09/22 12:57:19;;;;;;;;;;;18.20;92.80;;;;;;4989955;28;20040;-88
2022/09/22 12:59:45;;;;;;;;;;;18.00;94.60;;;;;;4989173;28;20035;-89
2022/09/22 13:02:14;;;;;;;;;;;17.90;94.50;;;;;;4989295;28;20266;-89
2022/09/22 13:05:00;;;;;;;;;;;17.50;93.40;;;;;;4989679;28;19913;-89
2022/09/22 13:10:30;;;;;;;;;;;17.60;93.70;;;;;;4989387;28;20048;-89
2022/09/22 13:13:05;;;;;;;;;;;18.00;92.70;;;;;;4988964;28;19914;-89
2022/09/22 13:15:48;;;;;;;;;;;18.00;94.10;;;;;;4989723;28;19913;-88
2022/09/22 13:18:33;;;;;;;;;;;17.70;94.00;;;;;;4992889;28;20038;-88
2022/09/22 13:21:00;;;;;;;;;;;17.90;94.40;;;;;;4991570;28;19920;-88
2022/09/22 13:23:26;;;;;;;;;;;18.00;94.00;;;;;;4992838;28;19926;-89
2022/09/22 13:25:52;;;;;;;;;;;18.40;94.20;;;;;;4992851;28;19925;-88
2022/09/22 13:28:19;;;;;;;;;;;18.30;94.20;;;;;;4993036;28;20075;-90
2022/09/22 13:30:46;;;;;;;;;;;18.10;94.80;;;;;;4993177;28;19940;-89
2022/09/22 13:33:18;;;;;;;;;;;18.20;95.60;;;;;;4993218;28;19914;-88
2022/09/22 13:35:44;;;;;;;;;;;18.20;95.10;;;;;;4993501;28;19914;-88
2022/09/22 13:38:13;;;;;;;;;;;18.20;95.70;;;;;;4992833;28;19999;-89
2022/09/22 13:40:43;;;;;;;;;;;18.20;95.20;;;;;;4993100;28;20043;-89
2022/09/22 13:43:11;;;;;;;;;;;17.90;95.20;;;;;;4977030;28;20234;-88
2022/09/22 13:45:37;;;;;;;;;;;17.90;95.90;;;;;;4993160;28;20067;-90
2022/09/22 13:48:14;;;;;;;;;;;17.60;95.40;;;;;;4992544;28;20052;-89
2022/09/22 13:50:43;;;;;;;;;;;17.50;95.90;;;;;;4992660;28;19917;-88
2022/09/22 13:53:14;;;;;;;;;;;17.20;96.30;;;;;;4992479;28;24080;-88
2022/09/22 13:55:39;;;;;;;;;;;16.90;95.90;;;;;;4992656;28;19918;-89
2022/09/22 13:58:07;;;;;;;;;;;16.70;97.50;;;;;;4991924;28;20040;-88
2022/09/22 14:00:39;;;;;;;;;;;16.50;97.40;;;;;;4991932;28;19916;-88
2022/09/22 14:03:05;;;;;;;;;;;16.30;97.80;;;;;;4992342;28;20006;-88
2022/09/22 14:05:32;;;;;;;;;;;16.10;97.10;;;;;;4992109;28;19953;-87
2022/09/22 14:08:00;;;;;;;;;;;15.80;98.70;;;;;;4992359;28;20486;-89
2022/09/22 14:10:26;;;;;;;;;;;15.70;98.90;;;;;;4977386;28;20392;-90
2022/09/22 14:12:53;;;;;;;;;;;15.70;98.40;;;;;;4992092;28;20024;-89
2022/09/22 14:15:31;;;;;;;;;;;15.80;99.30;;;;;;4992608;28;19910;-88
2022/09/22 14:17:57;;;;;;;;;;;15.70;98.80;;;;;;4992195;28;19956;-91
2022/09/22 14:20:23;;;;;;;;;;;15.70;98.40;;;;;;4991814;28;20123;-89
2022/09/22 14:22:49;;;;;;;;;;;15.50;99.90;;;;;;4991794;28;19910;-89
2022/09/22 14:25:21;;;;;;;;;;;15.30;99.10;;;;;;4992030;28;19964;-89
2022/09/22 14:27:54;;;;;;;;;;;15.10;99.70;;;;;;4990667;28;19914;-89
2022/09/22 14:30:23;;;;;;;;;;;15.20;99.50;;;;;;4991576;28;19910;-90
2022/09/22 14:32:50;;;;;;;;;;;15.30;99.90;;;;;;4991605;28;19910;-88
2022/09/22 14:35:36;;;;;;;;;;;15.30;99.90;;;;;;4991810;28;19914;-90
2022/09/22 14:38:08;;;;;;;;;;;15.30;99.90;;;;;;4975068;28;19918;-89
2022/09/22 14:40:36;;;;;;;;;;;15.30;99.90;;;;;;4991145;28;20038;-88
2022/09/22 14:43:19;;;;;;;;;;;15.20;99.90;;;;;;4992112;28;20317;-90
2022/09/22 14:45:55;;;;;;;;;;;15.00;99.90;;;;;;4991763;28;20433;-90
2022/09/22 14:48:26;;;;;;;;;;;14.80;99.90;;;;;;4991969;28;19913;-90
2022/09/22 14:50:57;;;;;;;;;;;14.70;99.90;;;;;;4991369;28;20041;-89
2022/09/22 14:53:22;;;;;;;;;;;14.70;99.90;;;;;;4989744;28;20069;-88
2022/09/22 14:55:50;;;;;;;;;;;14.60;99.90;;;;;;4991909;28;20251;-90
2022/09/22 14:58:19;;;;;;;;;;;14.50;99.90;;;;;;4991527;28;20065;-89
2022/09/22 15:03:51;;;;;;;;;;;14.50;99.90;;;;;;4990642;28;20493;-87